sensor_id;sensor_type;location;lat;lon;timestamp;P1;durP1;ratioP1;P2;durP2;ratioP2
34926;SDS011;21132;48.308;14.274;2023-03-12T00:00:29;7.03;;;3.70;;
34926;SDS011;21132;48.308;14.274;2023-03-12T00:02:55;6.53;;;3.80;;
34926;SDS011;21132;48.308;14.274;2023-03-12T00:05:21;5.18;;;3.00;;
34926;SDS011;21132;48.308;14.274;2023-03-12T00:07:49;6.90;;;3.60;;
34926;SDS011;21132;48.308;14.274;2023-03-12T00:10:16;12.55;;;6.40;;
34926;SDS011;21132;48.308;14.274;2023-03-12T00:12:42;9.82;;;5.45;;
34926;SDS011;21132;48.308;14.274;2023-03-12T00:15:08;6.82;;;3.78;;
34926;SDS011;21132;48.308;14.274;2023-03-12T00:17:37;6.05;;;3.50;;
34926;SDS011;21132;48.308;14.274;2023-03-12T00:20:03;5.50;;;3.70;;
34926;SDS011;21132;48.308;14.274;2023-03-12T00:22:33;8.07;;;3.63;;
34926;SDS011;21132;48.308;14.274;2023-03-12T00:24:59;5.55;;;3.20;;
34926;SDS011;21132;48.308;14.274;2023-03-12T00:27:25;8.50;;;3.60;;
34926;SDS011;21132;48.308;14.274;2023-03-12T00:29:51;8.75;;;3.78;;
34926;SDS011;21132;48.308;14.274;2023-03-12T00:32:17;6.45;;;3.47;;
34926;SDS011;21132;48.308;14.274;2023-03-12T00:34:43;6.22;;;3.65;;
34926;SDS011;21132;48.308;14.274;2023-03-12T00:37:14;7.53;;;3.95;;
34926;SDS011;21132;48.308;14.274;2023-03-12T00:39:39;5.70;;;3.35;;
34926;SDS011;21132;48.308;14.274;2023-03-12T00:42:05;8.02;;;3.92;;
34926;SDS011;21132;48.308;14.274;2023-03-12T00:44:31;13.77;;;4.60;;
34926;SDS011;21132;48.308;14.274;2023-03-12T00:46:57;9.32;;;5.10;;
34926;SDS011;21132;48.308;14.274;2023-03-12T00:49:23;12.23;;;5.30;;
34926;SDS011;21132;48.308;14.274;2023-03-12T00:51:48;9.98;;;5.40;;
34926;SDS011;21132;48.308;14.274;2023-03-12T00:54:14;10.38;;;5.80;;
34926;SDS011;21132;48.308;14.274;2023-03-12T00:56:40;10.27;;;4.75;;
34926;SDS011;21132;48.308;14.274;2023-03-12T00:59:06;6.80;;;3.70;;
34926;SDS011;21132;48.308;14.274;2023-03-12T01:01:31;6.63;;;3.60;;
34926;SDS011;21132;48.308;14.274;2023-03-12T01:03:57;6.40;;;3.88;;
34926;SDS011;21132;48.308;14.274;2023-03-12T01:06:23;5.95;;;3.58;;
34926;SDS011;21132;48.308;14.274;2023-03-12T01:08:50;5.03;;;3.40;;
34926;SDS011;21132;48.308;14.274;2023-03-12T01:11:17;6.28;;;3.65;;
34926;SDS011;21132;48.308;14.274;2023-03-12T01:13:44;7.68;;;4.10;;
34926;SDS011;21132;48.308;14.274;2023-03-12T01:16:10;7.03;;;4.03;;
34926;SDS011;21132;48.308;14.274;2023-03-12T01:18:36;10.00;;;4.15;;
34926;SDS011;21132;48.308;14.274;2023-03-12T01:21:02;8.70;;;3.90;;
34926;SDS011;21132;48.308;14.274;2023-03-12T01:23:28;9.73;;;4.53;;
34926;SDS011;21132;48.308;14.274;2023-03-12T01:25:54;8.65;;;4.22;;
34926;SDS011;21132;48.308;14.274;2023-03-12T01:28:21;12.45;;;5.70;;
34926;SDS011;21132;48.308;14.274;2023-03-12T01:30:47;21.35;;;8.57;;
34926;SDS011;21132;48.308;14.274;2023-03-12T01:33:13;11.00;;;5.32;;
34926;SDS011;21132;48.308;14.274;2023-03-12T01:35:39;14.65;;;6.25;;
34926;SDS011;21132;48.308;14.274;2023-03-12T01:38:06;10.15;;;4.38;;
34926;SDS011;21132;48.308;14.274;2023-03-12T01:40:35;7.47;;;4.00;;
34926;SDS011;21132;48.308;14.274;2023-03-12T01:43:21;7.30;;;3.70;;
34926;SDS011;21132;48.308;14.274;2023-03-12T01:48:41;8.88;;;3.70;;
34926;SDS011;21132;48.308;14.274;2023-03-12T01:51:11;6.13;;;3.80;;
34926;SDS011;21132;48.308;14.274;2023-03-12T01:53:38;6.78;;;3.78;;
34926;SDS011;21132;48.308;14.274;2023-03-12T01:56:09;8.05;;;3.38;;
34926;SDS011;21132;48.308;14.274;2023-03-12T01:58:36;6.80;;;3.67;;
34926;SDS011;21132;48.308;14.274;2023-03-12T02:01:04;6.13;;;3.45;;
34926;SDS011;21132;48.308;14.274;2023-03-12T02:03:31;9.68;;;3.75;;
34926;SDS011;21132;48.308;14.274;2023-03-12T02:06:02;5.07;;;3.42;;
34926;SDS011;21132;48.308;14.274;2023-03-12T02:08:34;6.65;;;3.60;;
34926;SDS011;21132;48.308;14.274;2023-03-12T02:11:03;12.77;;;3.55;;
34926;SDS011;21132;48.308;14.274;2023-03-12T02:13:29;4.75;;;3.00;;
34926;SDS011;21132;48.308;14.274;2023-03-12T02:15:55;7.70;;;3.80;;
34926;SDS011;21132;48.308;14.274;2023-03-12T02:18:21;7.20;;;3.40;;
34926;SDS011;21132;48.308;14.274;2023-03-12T02:20:56;6.65;;;3.10;;
34926;SDS011;21132;48.308;14.274;2023-03-12T02:23:31;5.35;;;3.22;;
34926;SDS011;21132;48.308;14.274;2023-03-12T02:26:01;9.52;;;4.93;;
34926;SDS011;21132;48.308;14.274;2023-03-12T02:28:29;8.57;;;4.40;;
34926;SDS011;21132;48.308;14.274;2023-03-12T02:31:01;8.88;;;4.63;;
34926;SDS011;21132;48.308;14.274;2023-03-12T02:33:27;5.93;;;3.42;;
34926;SDS011;21132;48.308;14.274;2023-03-12T02:35:53;7.30;;;3.50;;
34926;SDS011;21132;48.308;14.274;2023-03-12T02:38:41;6.28;;;3.20;;
34926;SDS011;21132;48.308;14.274;2023-03-12T02:41:13;7.28;;;3.10;;
34926;SDS011;21132;48.308;14.274;2023-03-12T02:44:10;5.75;;;3.13;;
34926;SDS011;21132;48.308;14.274;2023-03-12T02:46:48;4.45;;;2.70;;
34926;SDS011;21132;48.308;14.274;2023-03-12T02:49:16;4.53;;;2.60;;
34926;SDS011;21132;48.308;14.274;2023-03-12T02:51:44;7.40;;;2.92;;
34926;SDS011;21132;48.308;14.274;2023-03-12T02:54:11;6.68;;;3.30;;
34926;SDS011;21132;48.308;14.274;2023-03-12T02:56:38;6.18;;;3.25;;
34926;SDS011;21132;48.308;14.274;2023-03-12T02:59:05;5.95;;;3.78;;
34926;SDS011;21132;48.308;14.274;2023-03-12T03:01:31;7.20;;;3.83;;
34926;SDS011;21132;48.308;14.274;2023-03-12T03:03:58;5.63;;;3.20;;
34926;SDS011;21132;48.308;14.274;2023-03-12T03:06:25;6.68;;;3.28;;
34926;SDS011;21132;48.308;14.274;2023-03-12T03:08:51;6.35;;;3.10;;
34926;SDS011;21132;48.308;14.274;2023-03-12T03:11:17;6.65;;;3.08;;
34926;SDS011;21132;48.308;14.274;2023-03-12T03:13:43;4.13;;;2.72;;
34926;SDS011;21132;48.308;14.274;2023-03-12T03:16:09;6.80;;;3.35;;
34926;SDS011;21132;48.308;14.274;2023-03-12T03:18:36;7.07;;;3.10;;
34926;SDS011;21132;48.308;14.274;2023-03-12T03:21:03;7.80;;;3.10;;
34926;SDS011;21132;48.308;14.274;2023-03-12T03:23:31;5.53;;;3.25;;
34926;SDS011;21132;48.308;14.274;2023-03-12T03:25:57;4.40;;;2.72;;
34926;SDS011;21132;48.308;14.274;2023-03-12T03:28:24;5.25;;;3.30;;
34926;SDS011;21132;48.308;14.274;2023-03-12T03:30:52;5.10;;;2.92;;
34926;SDS011;21132;48.308;14.274;2023-03-12T03:33:19;5.75;;;3.40;;
34926;SDS011;21132;48.308;14.274;2023-03-12T03:35:46;5.22;;;3.45;;
34926;SDS011;21132;48.308;14.274;2023-03-12T03:38:12;5.95;;;2.88;;
34926;SDS011;21132;48.308;14.274;2023-03-12T03:40:38;10.05;;;2.97;;
34926;SDS011;21132;48.308;14.274;2023-03-12T03:43:04;9.13;;;2.90;;
34926;SDS011;21132;48.308;14.274;2023-03-12T03:45:29;4.35;;;2.65;;
34926;SDS011;21132;48.308;14.274;2023-03-12T03:47:55;5.32;;;2.58;;
34926;SDS011;21132;48.308;14.274;2023-03-12T03:50:21;7.88;;;3.90;;
34926;SDS011;21132;48.308;14.274;2023-03-12T03:52:47;5.45;;;3.45;;
34926;SDS011;21132;48.308;14.274;2023-03-12T03:55:13;7.13;;;3.13;;
34926;SDS011;21132;48.308;14.274;2023-03-12T03:57:39;6.82;;;3.10;;
34926;SDS011;21132;48.308;14.274;2023-03-12T04:00:05;4.53;;;2.50;;
34926;SDS011;21132;48.308;14.274;2023-03-12T04:02:34;7.32;;;2.70;;
34926;SDS011;21132;48.308;14.274;2023-03-12T04:05:00;4.60;;;2.30;;
34926;SDS011;21132;48.308;14.274;2023-03-12T04:07:26;4.80;;;2.85;;
34926;SDS011;21132;48.308;14.274;2023-03-12T04:09:52;5.25;;;2.97;;
34926;SDS011;21132;48.308;14.274;2023-03-12T04:12:19;5.63;;;3.28;;
34926;SDS011;21132;48.308;14.274;2023-03-12T04:14:45;3.42;;;2.33;;
34926;SDS011;21132;48.308;14.274;2023-03-12T04:17:11;4.20;;;2.30;;
34926;SDS011;21132;48.308;14.274;2023-03-12T04:19:37;4.70;;;2.25;;
34926;SDS011;21132;48.308;14.274;2023-03-12T04:22:03;6.22;;;2.80;;
34926;SDS011;21132;48.308;14.274;2023-03-12T04:24:29;5.07;;;2.72;;
34926;SDS011;21132;48.308;14.274;2023-03-12T04:26:55;5.30;;;3.00;;
34926;SDS011;21132;48.308;14.274;2023-03-12T04:29:22;5.47;;;3.10;;
34926;SDS011;21132;48.308;14.274;2023-03-12T04:31:47;7.75;;;3.33;;
34926;SDS011;21132;48.308;14.274;2023-03-12T04:34:13;4.90;;;3.00;;
34926;SDS011;21132;48.308;14.274;2023-03-12T04:36:39;4.75;;;3.08;;
34926;SDS011;21132;48.308;14.274;2023-03-12T04:39:05;6.60;;;3.20;;
34926;SDS011;21132;48.308;14.274;2023-03-12T04:41:31;5.57;;;2.97;;
34926;SDS011;21132;48.308;14.274;2023-03-12T04:43:58;5.60;;;2.97;;
34926;SDS011;21132;48.308;14.274;2023-03-12T04:46:24;4.90;;;3.00;;
34926;SDS011;21132;48.308;14.274;2023-03-12T04:48:49;9.10;;;5.07;;
34926;SDS011;21132;48.308;14.274;2023-03-12T04:51:15;9.95;;;4.15;;
34926;SDS011;21132;48.308;14.274;2023-03-12T04:53:42;8.38;;;4.10;;
34926;SDS011;21132;48.308;14.274;2023-03-12T04:56:07;5.63;;;3.15;;
34926;SDS011;21132;48.308;14.274;2023-03-12T04:58:33;4.95;;;3.30;;
34926;SDS011;21132;48.308;14.274;2023-03-12T05:01:00;7.07;;;2.75;;
34926;SDS011;21132;48.308;14.274;2023-03-12T05:03:25;6.72;;;3.08;;
34926;SDS011;21132;48.308;14.274;2023-03-12T05:05:51;5.65;;;2.92;;
34926;SDS011;21132;48.308;14.274;2023-03-12T05:08:17;4.25;;;2.50;;
34926;SDS011;21132;48.308;14.274;2023-03-12T05:10:43;4.50;;;2.63;;
34926;SDS011;21132;48.308;14.274;2023-03-12T05:13:15;6.65;;;2.90;;
34926;SDS011;21132;48.308;14.274;2023-03-12T05:15:42;6.00;;;3.20;;
34926;SDS011;21132;48.308;14.274;2023-03-12T05:18:09;7.60;;;3.55;;
34926;SDS011;21132;48.308;14.274;2023-03-12T05:20:35;3.88;;;2.30;;
34926;SDS011;21132;48.308;14.274;2023-03-12T05:23:01;5.00;;;2.95;;
34926;SDS011;21132;48.308;14.274;2023-03-12T05:25:27;4.40;;;2.40;;
34926;SDS011;21132;48.308;14.274;2023-03-12T05:27:52;5.28;;;2.97;;
34926;SDS011;21132;48.308;14.274;2023-03-12T05:30:20;3.45;;;2.20;;
34926;SDS011;21132;48.308;14.274;2023-03-12T05:32:46;3.42;;;2.35;;
34926;SDS011;21132;48.308;14.274;2023-03-12T05:35:11;5.05;;;2.30;;
34926;SDS011;21132;48.308;14.274;2023-03-12T05:37:37;5.97;;;3.33;;
34926;SDS011;21132;48.308;14.274;2023-03-12T05:40:03;9.93;;;5.13;;
34926;SDS011;21132;48.308;14.274;2023-03-12T05:42:31;11.75;;;4.95;;
34926;SDS011;21132;48.308;14.274;2023-03-12T05:44:57;8.00;;;4.20;;
34926;SDS011;21132;48.308;14.274;2023-03-12T05:47:23;4.93;;;3.03;;
34926;SDS011;21132;48.308;14.274;2023-03-12T05:49:49;4.38;;;2.72;;
34926;SDS011;21132;48.308;14.274;2023-03-12T05:52:15;4.68;;;2.92;;
34926;SDS011;21132;48.308;14.274;2023-03-12T05:54:40;5.25;;;2.60;;
34926;SDS011;21132;48.308;14.274;2023-03-12T05:57:06;5.40;;;2.60;;
34926;SDS011;21132;48.308;14.274;2023-03-12T05:59:32;5.97;;;3.00;;
34926;SDS011;21132;48.308;14.274;2023-03-12T06:01:58;5.55;;;2.95;;
34926;SDS011;21132;48.308;14.274;2023-03-12T06:04:24;5.47;;;2.72;;
34926;SDS011;21132;48.308;14.274;2023-03-12T06:06:50;6.18;;;2.42;;
34926;SDS011;21132;48.308;14.274;2023-03-12T06:09:16;3.78;;;2.45;;
34926;SDS011;21132;48.308;14.274;2023-03-12T06:11:42;4.40;;;2.28;;
34926;SDS011;21132;48.308;14.274;2023-03-12T06:14:07;3.95;;;2.35;;
34926;SDS011;21132;48.308;14.274;2023-03-12T06:16:33;4.50;;;2.60;;
34926;SDS011;21132;48.308;14.274;2023-03-12T06:19:00;5.30;;;2.97;;
34926;SDS011;21132;48.308;14.274;2023-03-12T06:21:28;5.28;;;3.10;;
34926;SDS011;21132;48.308;14.274;2023-03-12T06:23:55;4.40;;;2.67;;
34926;SDS011;21132;48.308;14.274;2023-03-12T06:26:22;3.53;;;2.70;;
34926;SDS011;21132;48.308;14.274;2023-03-12T06:28:48;5.13;;;2.90;;
34926;SDS011;21132;48.308;14.274;2023-03-12T06:31:15;6.65;;;2.78;;
34926;SDS011;21132;48.308;14.274;2023-03-12T06:33:42;3.67;;;2.53;;
34926;SDS011;21132;48.308;14.274;2023-03-12T06:36:08;4.75;;;2.78;;
34926;SDS011;21132;48.308;14.274;2023-03-12T06:38:34;8.30;;;3.78;;
34926;SDS011;21132;48.308;14.274;2023-03-12T06:41:02;5.88;;;2.67;;
34926;SDS011;21132;48.308;14.274;2023-03-12T06:43:47;5.10;;;2.78;;
34926;SDS011;21132;48.308;14.274;2023-03-12T06:46:14;5.82;;;2.72;;
34926;SDS011;21132;48.308;14.274;2023-03-12T06:48:42;6.40;;;3.42;;
34926;SDS011;21132;48.308;14.274;2023-03-12T06:51:10;5.30;;;3.53;;
34926;SDS011;21132;48.308;14.274;2023-03-12T06:53:37;6.28;;;3.50;;
34926;SDS011;21132;48.308;14.274;2023-03-12T06:56:03;6.25;;;3.67;;
34926;SDS011;21132;48.308;14.274;2023-03-12T06:58:30;5.47;;;3.75;;
34926;SDS011;21132;48.308;14.274;2023-03-12T07:00:56;5.85;;;3.83;;
34926;SDS011;21132;48.308;14.274;2023-03-12T07:03:21;8.30;;;4.07;;
34926;SDS011;21132;48.308;14.274;2023-03-12T07:05:48;5.57;;;2.95;;
34926;SDS011;21132;48.308;14.274;2023-03-12T07:08:15;4.80;;;3.00;;
34926;SDS011;21132;48.308;14.274;2023-03-12T07:10:42;4.38;;;2.75;;
34926;SDS011;21132;48.308;14.274;2023-03-12T07:13:09;5.53;;;3.00;;
34926;SDS011;21132;48.308;14.274;2023-03-12T07:15:35;5.80;;;3.33;;
34926;SDS011;21132;48.308;14.274;2023-03-12T07:18:08;4.50;;;2.80;;
34926;SDS011;21132;48.308;14.274;2023-03-12T07:20:35;5.32;;;3.10;;
34926;SDS011;21132;48.308;14.274;2023-03-12T07:23:03;4.20;;;2.95;;
34926;SDS011;21132;48.308;14.274;2023-03-12T07:25:29;7.75;;;3.15;;
34926;SDS011;21132;48.308;14.274;2023-03-12T07:27:54;4.93;;;3.35;;
34926;SDS011;21132;48.308;14.274;2023-03-12T07:30:20;7.28;;;3.75;;
34926;SDS011;21132;48.308;14.274;2023-03-12T07:32:47;7.00;;;4.03;;
34926;SDS011;21132;48.308;14.274;2023-03-12T07:35:12;7.13;;;3.92;;
34926;SDS011;21132;48.308;14.274;2023-03-12T07:37:38;5.75;;;3.05;;
34926;SDS011;21132;48.308;14.274;2023-03-12T07:40:04;6.15;;;3.75;;
34926;SDS011;21132;48.308;14.274;2023-03-12T07:42:31;10.32;;;4.32;;
34926;SDS011;21132;48.308;14.274;2023-03-12T07:44:57;10.38;;;3.90;;
34926;SDS011;21132;48.308;14.274;2023-03-12T07:47:23;7.95;;;4.47;;
34926;SDS011;21132;48.308;14.274;2023-03-12T07:49:50;7.50;;;3.80;;
34926;SDS011;21132;48.308;14.274;2023-03-12T07:52:16;7.40;;;4.07;;
34926;SDS011;21132;48.308;14.274;2023-03-12T07:54:44;4.20;;;3.22;;
34926;SDS011;21132;48.308;14.274;2023-03-12T07:57:10;6.13;;;3.75;;
34926;SDS011;21132;48.308;14.274;2023-03-12T07:59:36;5.25;;;3.25;;
34926;SDS011;21132;48.308;14.274;2023-03-12T08:02:02;7.45;;;3.80;;
34926;SDS011;21132;48.308;14.274;2023-03-12T08:04:27;6.13;;;3.55;;
34926;SDS011;21132;48.308;14.274;2023-03-12T08:06:53;8.45;;;3.47;;
34926;SDS011;21132;48.308;14.274;2023-03-12T08:09:19;8.32;;;4.43;;
34926;SDS011;21132;48.308;14.274;2023-03-12T08:11:45;12.32;;;6.53;;
34926;SDS011;21132;48.308;14.274;2023-03-12T08:14:11;12.18;;;5.97;;
34926;SDS011;21132;48.308;14.274;2023-03-12T08:16:37;12.23;;;6.72;;
34926;SDS011;21132;48.308;14.274;2023-03-12T08:19:02;15.00;;;8.23;;
34926;SDS011;21132;48.308;14.274;2023-03-12T08:21:28;18.63;;;9.68;;
34926;SDS011;21132;48.308;14.274;2023-03-12T08:23:54;16.90;;;9.15;;
34926;SDS011;21132;48.308;14.274;2023-03-12T08:26:19;21.10;;;10.15;;
34926;SDS011;21132;48.308;14.274;2023-03-12T08:28:45;19.23;;;10.32;;
34926;SDS011;21132;48.308;14.274;2023-03-12T08:31:11;17.92;;;9.57;;
34926;SDS011;21132;48.308;14.274;2023-03-12T08:33:38;19.15;;;9.68;;
34926;SDS011;21132;48.308;14.274;2023-03-12T08:36:07;16.75;;;9.00;;
34926;SDS011;21132;48.308;14.274;2023-03-12T08:38:34;18.13;;;8.43;;
34926;SDS011;21132;48.308;14.274;2023-03-12T08:41:00;17.38;;;8.02;;
34926;SDS011;21132;48.308;14.274;2023-03-12T08:43:27;14.32;;;8.23;;
34926;SDS011;21132;48.308;14.274;2023-03-12T08:45:56;20.08;;;9.65;;
34926;SDS011;21132;48.308;14.274;2023-03-12T08:48:23;14.50;;;7.75;;
34926;SDS011;21132;48.308;14.274;2023-03-12T08:50:50;18.95;;;8.65;;
34926;SDS011;21132;48.308;14.274;2023-03-12T08:53:18;16.67;;;7.72;;
34926;SDS011;21132;48.308;14.274;2023-03-12T08:55:44;13.63;;;7.20;;
34926;SDS011;21132;48.308;14.274;2023-03-12T08:58:10;17.55;;;8.00;;
34926;SDS011;21132;48.308;14.274;2023-03-12T09:00:35;14.82;;;7.43;;
34926;SDS011;21132;48.308;14.274;2023-03-12T09:03:01;18.13;;;7.75;;
34926;SDS011;21132;48.308;14.274;2023-03-12T09:05:27;13.35;;;6.93;;
34926;SDS011;21132;48.308;14.274;2023-03-12T09:07:56;10.85;;;6.13;;
34926;SDS011;21132;48.308;14.274;2023-03-12T09:10:24;10.65;;;5.78;;
34926;SDS011;21132;48.308;14.274;2023-03-12T09:12:51;12.68;;;6.00;;
34926;SDS011;21132;48.308;14.274;2023-03-12T09:15:17;18.02;;;6.72;;
34926;SDS011;21132;48.308;14.274;2023-03-12T09:17:42;14.25;;;6.63;;
34926;SDS011;21132;48.308;14.274;2023-03-12T09:20:08;12.10;;;6.43;;
34926;SDS011;21132;48.308;14.274;2023-03-12T09:22:38;15.38;;;7.03;;
34926;SDS011;21132;48.308;14.274;2023-03-12T09:25:06;18.17;;;6.40;;
34926;SDS011;21132;48.308;14.274;2023-03-12T09:27:37;11.80;;;6.45;;
34926;SDS011;21132;48.308;14.274;2023-03-12T09:30:05;15.00;;;6.65;;
34926;SDS011;21132;48.308;14.274;2023-03-12T09:32:33;15.30;;;8.18;;
34926;SDS011;21132;48.308;14.274;2023-03-12T09:34:58;11.80;;;6.05;;
34926;SDS011;21132;48.308;14.274;2023-03-12T09:37:24;18.63;;;6.20;;
34926;SDS011;21132;48.308;14.274;2023-03-12T09:39:51;13.65;;;6.20;;
34926;SDS011;21132;48.308;14.274;2023-03-12T09:42:22;11.45;;;5.95;;
34926;SDS011;21132;48.308;14.274;2023-03-12T09:44:57;14.60;;;5.57;;
34926;SDS011;21132;48.308;14.274;2023-03-12T09:47:28;12.57;;;5.68;;
34926;SDS011;21132;48.308;14.274;2023-03-12T09:52:34;12.60;;;5.97;;
34926;SDS011;21132;48.308;14.274;2023-03-12T09:55:16;14.77;;;5.20;;
34926;SDS011;21132;48.308;14.274;2023-03-12T09:57:46;11.13;;;5.45;;
34926;SDS011;21132;48.308;14.274;2023-03-12T10:00:15;9.95;;;5.10;;
34926;SDS011;21132;48.308;14.274;2023-03-12T10:08:04;6.57;;;3.75;;
34926;SDS011;21132;48.308;14.274;2023-03-12T10:13:14;6.72;;;2.85;;
34926;SDS011;21132;48.308;14.274;2023-03-12T10:16:10;8.13;;;3.05;;
34926;SDS011;21132;48.308;14.274;2023-03-12T10:21:38;5.40;;;3.33;;
34926;SDS011;21132;48.308;14.274;2023-03-12T10:26:56;5.75;;;3.60;;
34926;SDS011;21132;48.308;14.274;2023-03-12T10:29:25;5.63;;;3.30;;
34926;SDS011;21132;48.308;14.274;2023-03-12T10:34:38;4.68;;;2.78;;
34926;SDS011;21132;48.308;14.274;2023-03-12T10:39:54;5.28;;;2.80;;
34926;SDS011;21132;48.308;14.274;2023-03-12T10:42:21;5.97;;;3.00;;
34926;SDS011;21132;48.308;14.274;2023-03-12T10:45:32;3.22;;;2.13;;
34926;SDS011;21132;48.308;14.274;2023-03-12T10:50:19;4.13;;;2.70;;
34926;SDS011;21132;48.308;14.274;2023-03-12T10:52:49;3.67;;;2.40;;
34926;SDS011;21132;48.308;14.274;2023-03-12T10:55:26;5.00;;;3.30;;
34926;SDS011;21132;48.308;14.274;2023-03-12T10:57:54;4.43;;;2.75;;
34926;SDS011;21132;48.308;14.274;2023-03-12T11:00:24;4.05;;;2.83;;
34926;SDS011;21132;48.308;14.274;2023-03-12T11:02:56;7.07;;;3.45;;
34926;SDS011;21132;48.308;14.274;2023-03-12T11:05:48;5.70;;;2.90;;
34926;SDS011;21132;48.308;14.274;2023-03-12T11:08:26;5.35;;;3.40;;
34926;SDS011;21132;48.308;14.274;2023-03-12T11:11:00;6.13;;;3.90;;
34926;SDS011;21132;48.308;14.274;2023-03-12T11:13:32;6.53;;;3.28;;
34926;SDS011;21132;48.308;14.274;2023-03-12T11:16:23;5.68;;;3.42;;
34926;SDS011;21132;48.308;14.274;2023-03-12T11:18:55;6.78;;;3.72;;
34926;SDS011;21132;48.308;14.274;2023-03-12T11:21:26;6.85;;;3.97;;
34926;SDS011;21132;48.308;14.274;2023-03-12T11:26:22;7.60;;;4.18;;
34926;SDS011;21132;48.308;14.274;2023-03-12T11:28:51;5.85;;;4.07;;
34926;SDS011;21132;48.308;14.274;2023-03-12T11:31:29;9.50;;;5.35;;
34926;SDS011;21132;48.308;14.274;2023-03-12T11:33:59;7.75;;;4.20;;
34926;SDS011;21132;48.308;14.274;2023-03-12T11:36:33;6.88;;;4.05;;
34926;SDS011;21132;48.308;14.274;2023-03-12T11:39:18;7.07;;;4.03;;
34926;SDS011;21132;48.308;14.274;2023-03-12T11:44:35;8.35;;;3.88;;
34926;SDS011;21132;48.308;14.274;2023-03-12T11:47:31;5.22;;;3.47;;
34926;SDS011;21132;48.308;14.274;2023-03-12T11:50:23;6.88;;;4.40;;
34926;SDS011;21132;48.308;14.274;2023-03-12T11:56:08;8.02;;;3.60;;
34926;SDS011;21132;48.308;14.274;2023-03-12T11:59:01;5.10;;;3.45;;
34926;SDS011;21132;48.308;14.274;2023-03-12T12:01:35;6.60;;;3.88;;
34926;SDS011;21132;48.308;14.274;2023-03-12T12:04:27;5.43;;;3.60;;
34926;SDS011;21132;48.308;14.274;2023-03-12T12:07:11;5.85;;;3.90;;
34926;SDS011;21132;48.308;14.274;2023-03-12T12:12:38;7.80;;;4.15;;
34926;SDS011;21132;48.308;14.274;2023-03-12T12:15:23;4.40;;;3.10;;
34926;SDS011;21132;48.308;14.274;2023-03-12T12:18:01;8.13;;;4.28;;
34926;SDS011;21132;48.308;14.274;2023-03-12T12:23:27;4.53;;;3.28;;
34926;SDS011;21132;48.308;14.274;2023-03-12T12:26:05;6.13;;;3.70;;
34926;SDS011;21132;48.308;14.274;2023-03-12T12:28:48;5.85;;;3.50;;
34926;SDS011;21132;48.308;14.274;2023-03-12T12:31:39;7.65;;;3.58;;
34926;SDS011;21132;48.308;14.274;2023-03-12T12:39:41;6.38;;;3.75;;
34926;SDS011;21132;48.308;14.274;2023-03-12T12:42:18;8.23;;;4.43;;
34926;SDS011;21132;48.308;14.274;2023-03-12T12:44:50;4.53;;;3.40;;
34926;SDS011;21132;48.308;14.274;2023-03-12T12:47:18;5.25;;;3.63;;
34926;SDS011;21132;48.308;14.274;2023-03-12T12:49:57;5.30;;;3.60;;
34926;SDS011;21132;48.308;14.274;2023-03-12T12:52:24;6.03;;;3.83;;
34926;SDS011;21132;48.308;14.274;2023-03-12T12:57:40;4.65;;;3.50;;
34926;SDS011;21132;48.308;14.274;2023-03-12T13:03:14;4.90;;;3.67;;
34926;SDS011;21132;48.308;14.274;2023-03-12T13:13:44;9.73;;;5.32;;
34926;SDS011;21132;48.308;14.274;2023-03-12T13:16:32;5.85;;;4.13;;
34926;SDS011;21132;48.308;14.274;2023-03-12T13:24:42;6.72;;;4.00;;
34926;SDS011;21132;48.308;14.274;2023-03-12T13:27:41;6.03;;;3.67;;
34926;SDS011;21132;48.308;14.274;2023-03-12T13:45:57;7.65;;;4.55;;
34926;SDS011;21132;48.308;14.274;2023-03-12T13:48:43;6.90;;;4.40;;
34926;SDS011;21132;48.308;14.274;2023-03-12T13:51:14;4.47;;;3.50;;
34926;SDS011;21132;48.308;14.274;2023-03-12T13:53:51;5.65;;;3.40;;
34926;SDS011;21132;48.308;14.274;2023-03-12T13:56:24;5.35;;;4.00;;
34926;SDS011;21132;48.308;14.274;2023-03-12T14:01:25;4.43;;;3.17;;
34926;SDS011;21132;48.308;14.274;2023-03-12T14:04:00;5.30;;;3.67;;
34926;SDS011;21132;48.308;14.274;2023-03-12T14:06:46;4.93;;;3.33;;
34926;SDS011;21132;48.308;14.274;2023-03-12T14:12:30;5.55;;;3.85;;
34926;SDS011;21132;48.308;14.274;2023-03-12T14:18:04;3.90;;;2.80;;
34926;SDS011;21132;48.308;14.274;2023-03-12T14:20:41;7.55;;;3.90;;
34926;SDS011;21132;48.308;14.274;2023-03-12T14:23:17;8.85;;;4.30;;
34926;SDS011;21132;48.308;14.274;2023-03-12T14:25:44;6.90;;;4.40;;
34926;SDS011;21132;48.308;14.274;2023-03-12T14:28:16;5.20;;;4.18;;
34926;SDS011;21132;48.308;14.274;2023-03-12T14:33:13;9.75;;;3.72;;
34926;SDS011;21132;48.308;14.274;2023-03-12T14:35:42;6.65;;;3.38;;
34926;SDS011;21132;48.308;14.274;2023-03-12T14:38:27;6.35;;;3.47;;
34926;SDS011;21132;48.308;14.274;2023-03-12T14:40:59;6.68;;;3.42;;
34926;SDS011;21132;48.308;14.274;2023-03-12T14:43:39;5.45;;;3.55;;
34926;SDS011;21132;48.308;14.274;2023-03-12T14:46:17;5.85;;;3.25;;
34926;SDS011;21132;48.308;14.274;2023-03-12T14:48:46;5.60;;;3.22;;
34926;SDS011;21132;48.308;14.274;2023-03-12T14:51:21;5.40;;;3.50;;
34926;SDS011;21132;48.308;14.274;2023-03-12T14:53:49;5.05;;;3.25;;
34926;SDS011;21132;48.308;14.274;2023-03-12T14:56:22;5.40;;;3.35;;
34926;SDS011;21132;48.308;14.274;2023-03-12T14:58:54;7.45;;;4.25;;
34926;SDS011;21132;48.308;14.274;2023-03-12T15:01:31;5.25;;;3.40;;
34926;SDS011;21132;48.308;14.274;2023-03-12T15:04:02;5.68;;;3.00;;
34926;SDS011;21132;48.308;14.274;2023-03-12T15:06:34;4.57;;;3.15;;
34926;SDS011;21132;48.308;14.274;2023-03-12T15:09:05;7.10;;;3.50;;
34926;SDS011;21132;48.308;14.274;2023-03-12T15:11:33;5.00;;;3.60;;
34926;SDS011;21132;48.308;14.274;2023-03-12T15:14:01;5.13;;;3.20;;
34926;SDS011;21132;48.308;14.274;2023-03-12T15:16:33;4.53;;;3.10;;
34926;SDS011;21132;48.308;14.274;2023-03-12T15:19:00;4.78;;;3.40;;
34926;SDS011;21132;48.308;14.274;2023-03-12T15:21:27;5.15;;;3.00;;
34926;SDS011;21132;48.308;14.274;2023-03-12T15:23:55;4.45;;;3.05;;
34926;SDS011;21132;48.308;14.274;2023-03-12T15:29:00;5.78;;;3.50;;
34926;SDS011;21132;48.308;14.274;2023-03-12T15:31:51;6.00;;;3.33;;
34926;SDS011;21132;48.308;14.274;2023-03-12T15:34:31;5.43;;;3.08;;
34926;SDS011;21132;48.308;14.274;2023-03-12T15:37:48;5.25;;;3.08;;
34926;SDS011;21132;48.308;14.274;2023-03-12T15:39:58;4.75;;;2.65;;
34926;SDS011;21132;48.308;14.274;2023-03-12T15:42:28;3.53;;;2.65;;
34926;SDS011;21132;48.308;14.274;2023-03-12T15:45:21;5.72;;;3.20;;
34926;SDS011;21132;48.308;14.274;2023-03-12T15:47:50;3.25;;;2.47;;
34926;SDS011;21132;48.308;14.274;2023-03-12T15:50:18;4.18;;;2.90;;
34926;SDS011;21132;48.308;14.274;2023-03-12T15:53:04;6.80;;;3.38;;
34926;SDS011;21132;48.308;14.274;2023-03-12T15:55:32;5.75;;;3.50;;
34926;SDS011;21132;48.308;14.274;2023-03-12T15:57:59;6.80;;;3.60;;
34926;SDS011;21132;48.308;14.274;2023-03-12T16:02:57;5.07;;;3.03;;
34926;SDS011;21132;48.308;14.274;2023-03-12T16:05:34;5.70;;;2.90;;
34926;SDS011;21132;48.308;14.274;2023-03-12T16:08:21;10.52;;;3.08;;
34926;SDS011;21132;48.308;14.274;2023-03-12T16:11:17;5.22;;;2.40;;
34926;SDS011;21132;48.308;14.274;2023-03-12T16:14:00;5.63;;;2.53;;
34926;SDS011;21132;48.308;14.274;2023-03-12T16:16:49;4.60;;;2.65;;
34926;SDS011;21132;48.308;14.274;2023-03-12T16:19:16;3.97;;;2.58;;
34926;SDS011;21132;48.308;14.274;2023-03-12T16:21:45;6.38;;;2.70;;
34926;SDS011;21132;48.308;14.274;2023-03-12T16:24:13;4.78;;;2.22;;
34926;SDS011;21132;48.308;14.274;2023-03-12T16:26:51;3.92;;;2.30;;